Kruibeke, Belgium
Current Conditions -  °F | °C
As of 1:20 PM on Tuesday 27 Jan 2015 (Local Time) from EBAW Reporting Station
Broken Clouds Broken Clouds  
Wind Chill: 38°   Ceiling: 1600
Heat Index: 43°   Visibility: 6mi
Dew Point: 37°   Wind: 8mph
Humidity: 81%   Direction: 260°W
Pressure: 30.27"   Gusts: NA
Location:  51.17°N, 4.31°E
Report Text: EBAW 271220Z 26007KT 9999 SCT012 BKN016 06/03 Q1025 NOSIG
Loading
Personal Weather Stations






























Interactive Weather Map New forecast layout! Learn more

10-Day Weather Forecast

Advertisements
Track Severe Weather on mobile